Time,TemperatureF,DewpointF,PressureIn,WindDirection,WindDirectionDegrees,WindSpeedMPH,WindSpeedGustMPH,Humidity,HourlyPrecipIn,Conditions,Clouds,dailyrainin,SoftwareType,DateUTC
2013-01-16 00:04:00,27.2,20.0,30.52,ENE,68,0.2,1.1,74,0.00,,,0.00,WUHU216HW,2013-01-16 08:04:00,
2013-01-16 00:09:00,27.4,20.4,30.52,ENE,68,0.4,1.1,75,0.00,,,0.00,WUHU216HW,2013-01-16 08:09:00,
2013-01-16 00:14:00,27.2,20.3,30.52,ENE,68,0.0,0.9,75,0.00,,,0.00,WUHU216HW,2013-01-16 08:14:00,
2013-01-16 00:19:00,27.0,19.8,30.52,ENE,68,0.4,0.9,74,0.00,,,0.00,WUHU216HW,2013-01-16 08:19:00,
2013-01-16 00:24:00,27.0,19.8,30.52,NE,45,0.7,1.8,74,0.00,,,0.00,WUHU216HW,2013-01-16 08:24:00,
2013-01-16 00:29:00,26.8,19.6,30.52,NE,45,1.3,1.8,74,0.00,,,0.00,WUHU216HW,2013-01-16 08:29:00,
2013-01-16 00:34:00,26.8,19.6,30.52,NE,45,0.9,1.8,74,0.00,,,0.00,WUHU216HW,2013-01-16 08:34:00,
2013-01-16 00:39:00,26.6,19.5,30.52,NE,45,1.6,1.8,74,0.00,,,0.00,WUHU216HW,2013-01-16 08:39:00,
2013-01-16 00:44:00,26.6,19.5,30.52,NE,45,0.0,2.5,74,0.00,,,0.00,WUHU216HW,2013-01-16 08:44:00,
2013-01-16 00:49:00,26.6,19.5,30.52,ENE,68,1.6,2.5,74,0.00,,,0.00,WUHU216HW,2013-01-16 08:49:00,
2013-01-16 00:54:00,26.6,19.5,30.52,NNE,23,1.1,2.5,74,0.00,,,0.00,WUHU216HW,2013-01-16 08:54:00,
2013-01-16 00:59:00,26.5,18.9,30.51,NNE,23,0.0,2.2,73,0.00,,,0.00,WUHU216HW,2013-01-16 08:59:00,
2013-01-16 01:04:00,26.3,18.7,30.51,NNE,23,0.0,1.3,73,0.00,,,0.00,WUHU216HW,2013-01-16 09:04:00,
2013-01-16 01:09:00,26.1,18.9,30.51,NNE,23,0.0,0.9,74,0.00,,,0.00,WUHU216HW,2013-01-16 09:09:00,
2013-01-16 01:14:00,25.7,18.5,30.51,NNE,23,0.0,0.9,74,0.00,,,0.00,WUHU216HW,2013-01-16 09:14:00,
2013-01-16 01:19:00,25.6,18.4,30.51,NNE,23,0.0,0.7,74,0.00,,,0.00,WUHU216HW,2013-01-16 09:19:00,
2013-01-16 01:24:00,25.6,18.4,30.51,NNE,23,0.0,1.1,74,0.00,,,0.00,WUHU216HW,2013-01-16 09:24:00,
2013-01-16 01:29:00,25.4,18.6,30.51,NNE,23,1.1,1.1,75,0.00,,,0.00,WUHU216HW,2013-01-16 09:29:00,
2013-01-16 01:34:00,25.4,18.6,30.52,NE,45,1.8,1.8,75,0.00,,,0.00,WUHU216HW,2013-01-16 09:34:00,
2013-01-16 01:39:00,25.4,18.6,30.51,NE,45,0.4,1.8,75,0.00,,,0.00,WUHU216HW,2013-01-16 09:39:00,
2013-01-16 01:44:00,25.2,18.4,30.52,NE,45,1.8,2.0,75,0.00,,,0.00,WUHU216HW,2013-01-16 09:44:00,
2013-01-16 01:49:00,25.4,18.6,30.52,NNE,23,1.8,2.9,75,0.00,,,0.00,WUHU216HW,2013-01-16 09:49:00,
2013-01-16 01:54:00,25.2,18.4,30.52,NE,45,0.4,2.9,75,0.00,,,0.00,WUHU216HW,2013-01-16 09:54:00,
2013-01-16 01:59:00,25.2,18.4,30.52,NNE,23,1.6,2.5,75,0.00,,,0.00,WUHU216HW,2013-01-16 09:59:00,
2013-01-16 02:04:00,25.2,18.4,30.53,North,0,3.4,3.4,75,0.00,,,0.00,WUHU216HW,2013-01-16 10:04:00,
2013-01-16 02:09:00,25.2,18.4,30.53,NNE,23,0.7,3.4,75,0.00,,,0.00,WUHU216HW,2013-01-16 10:09:00,
2013-01-16 02:14:00,25.2,18.4,30.53,NE,45,1.1,3.6,75,0.00,,,0.00,WUHU216HW,2013-01-16 10:14:00,
2013-01-16 02:19:00,25.2,18.4,30.53,ENE,68,1.8,3.8,75,0.00,,,0.00,WUHU216HW,2013-01-16 10:19:00,
2013-01-16 02:24:00,25.4,18.6,30.53,ENE,68,1.6,4.0,75,0.00,,,0.00,WUHU216HW,2013-01-16 10:24:00,
2013-01-16 02:29:00,25.6,18.4,30.54,NNE,23,2.2,4.0,74,0.00,,,0.00,WUHU216HW,2013-01-16 10:29:00,
2013-01-16 02:34:00,25.6,18.4,30.54,NE,45,2.0,4.7,74,0.00,,,0.00,WUHU216HW,2013-01-16 10:34:00,
2013-01-16 02:39:00,25.6,18.4,30.54,NE,45,2.7,4.7,74,0.00,,,0.00,WUHU216HW,2013-01-16 10:39:00,
2013-01-16 02:44:00,25.6,18.1,30.54,NNE,23,0.4,3.6,73,0.00,,,0.00,WUHU216HW,2013-01-16 10:44:00,
2013-01-16 02:49:00,25.6,18.4,30.54,NNE,23,2.5,4.0,74,0.00,,,0.00,WUHU216HW,2013-01-16 10:49:00,
2013-01-16 02:54:00,25.6,18.4,30.54,NNE,23,2.5,4.5,74,0.00,,,0.00,WUHU216HW,2013-01-16 10:54:00,
2013-01-16 02:59:00,25.6,18.1,30.54,NE,45,1.8,4.5,73,0.00,,,0.00,WUHU216HW,2013-01-16 10:59:00,
2013-01-16 03:04:00,25.6,18.1,30.54,NNE,23,2.0,3.8,73,0.00,,,0.00,WUHU216HW,2013-01-16 11:04:00,
2013-01-16 03:09:00,25.4,18.2,30.54,NNE,23,2.9,3.8,74,0.00,,,0.00,WUHU216HW,2013-01-16 11:09:00,
2013-01-16 03:14:00,25.4,18.2,30.54,ENE,68,1.8,3.8,74,0.00,,,0.00,WUHU216HW,2013-01-16 11:14:00,
2013-01-16 03:19:00,25.4,18.2,30.54,NE,45,2.2,3.4,74,0.00,,,0.00,WUHU216HW,2013-01-16 11:19:00,
2013-01-16 03:24:00,25.2,18.0,30.54,North,0,1.1,3.4,74,0.00,,,0.00,WUHU216HW,2013-01-16 11:24:00,
2013-01-16 03:29:00,25.2,18.0,30.54,NE,45,2.7,2.7,74,0.00,,,0.00,WUHU216HW,2013-01-16 11:29:00,
2013-01-16 03:34:00,25.2,18.0,30.53,NNE,23,3.4,4.7,74,0.00,,,0.00,WUHU216HW,2013-01-16 11:34:00,
2013-01-16 03:39:00,25.6,18.4,30.53,North,0,3.1,4.7,74,0.00,,,0.00,WUHU216HW,2013-01-16 11:39:00,
2013-01-16 03:44:00,25.7,17.9,30.54,NNE,23,2.2,4.7,72,0.00,,,0.00,WUHU216HW,2013-01-16 11:44:00,
2013-01-16 03:49:00,25.7,17.9,30.53,NNE,23,2.2,5.4,72,0.00,,,0.00,WUHU216HW,2013-01-16 11:49:00,
2013-01-16 03:54:00,25.6,17.7,30.53,NNE,23,1.8,5.4,72,0.00,,,0.00,WUHU216HW,2013-01-16 11:54:00,
2013-01-16 03:59:00,25.2,17.4,30.53,NE,45,1.3,2.2,72,0.00,,,0.00,WUHU216HW,2013-01-16 11:59:00,
2013-01-16 04:04:00,25.0,17.2,30.53,NE,45,2.0,2.9,72,0.00,,,0.00,WUHU216HW,2013-01-16 12:04:00,
2013-01-16 04:09:00,24.8,17.0,30.53,NNE,23,0.2,2.9,72,0.00,,,0.00,WUHU216HW,2013-01-16 12:09:00,
2013-01-16 04:14:00,24.8,17.0,30.53,NNE,23,0.7,2.0,72,0.00,,,0.00,WUHU216HW,2013-01-16 12:14:00,
2013-01-16 04:19:00,24.5,16.8,30.53,NNE,23,0.4,1.6,72,0.00,,,0.00,WUHU216HW,2013-01-16 12:19:00,
2013-01-16 04:24:00,24.3,16.8,30.53,NNE,23,0.7,2.2,73,0.00,,,0.00,WUHU216HW,2013-01-16 12:24:00,
2013-01-16 04:29:00,24.3,16.8,30.53,NE,45,0.9,2.2,73,0.00,,,0.00,WUHU216HW,2013-01-16 12:29:00,
2013-01-16 04:34:00,24.3,16.8,30.52,NNE,23,2.5,3.4,73,0.00,,,0.00,WUHU216HW,2013-01-16 12:34:00,
2013-01-16 04:39:00,24.3,16.8,30.51,NE,45,1.1,3.4,73,0.00,,,0.00,WUHU216HW,2013-01-16 12:39:00,
2013-01-16 04:44:00,24.3,16.8,30.51,ENE,68,2.0,2.5,73,0.00,,,0.00,WUHU216HW,2013-01-16 12:44:00,
2013-01-16 04:49:00,24.3,16.8,30.50,NNE,23,1.3,2.2,73,0.00,,,0.00,WUHU216HW,2013-01-16 12:49:00,
2013-01-16 04:54:00,24.1,16.7,30.50,NNE,23,0.2,2.0,73,0.00,,,0.00,WUHU216HW,2013-01-16 12:54:00,
2013-01-16 04:59:00,23.9,16.5,30.50,NNE,23,0.9,1.3,73,0.00,,,0.00,WUHU216HW,2013-01-16 12:59:00,
2013-01-16 05:04:00,23.9,16.8,30.50,NE,45,0.2,1.6,74,0.00,,,0.00,WUHU216HW,2013-01-16 13:04:00,
2013-01-16 05:09:00,23.9,16.5,30.49,NE,45,2.0,2.9,73,0.00,,,0.00,WUHU216HW,2013-01-16 13:09:00,
2013-01-16 05:14:00,23.9,16.5,30.49,NE,45,1.8,3.4,73,0.00,,,0.00,WUHU216HW,2013-01-16 13:14:00,
2013-01-16 05:19:00,24.1,16.7,30.50,ENE,68,2.7,4.0,73,0.00,,,0.00,WUHU216HW,2013-01-16 13:19:00,
2013-01-16 05:24:00,24.1,16.7,30.50,NE,45,1.8,4.0,73,0.00,,,0.00,WUHU216HW,2013-01-16 13:24:00,
2013-01-16 05:29:00,23.8,16.0,30.49,ENE,68,1.8,3.1,72,0.00,,,0.00,WUHU216HW,2013-01-16 13:29:00,
2013-01-16 05:34:00,23.8,16.4,30.49,NE,45,1.1,3.1,73,0.00,,,0.00,WUHU216HW,2013-01-16 13:34:00,
2013-01-16 05:39:00,23.8,16.4,30.49,ENE,68,2.2,4.0,73,0.00,,,0.00,WUHU216HW,2013-01-16 13:39:00,
2013-01-16 05:44:00,23.8,16.4,30.50,NE,45,1.1,4.0,73,0.00,,,0.00,WUHU216HW,2013-01-16 13:44:00,
2013-01-16 05:49:00,23.8,16.4,30.50,NE,45,2.5,3.1,73,0.00,,,0.00,WUHU216HW,2013-01-16 13:49:00,
2013-01-16 05:54:00,23.8,16.4,30.51,NNE,23,1.1,2.9,73,0.00,,,0.00,WUHU216HW,2013-01-16 13:54:00,
2013-01-16 05:59:00,23.8,16.0,30.51,NE,45,2.2,3.8,72,0.00,,,0.00,WUHU216HW,2013-01-16 13:59:00,
2013-01-16 06:04:00,23.6,15.8,30.51,ENE,68,2.9,3.8,72,0.00,,,0.00,WUHU216HW,2013-01-16 14:04:00,
2013-01-16 06:09:00,23.8,16.0,30.51,NE,45,1.8,3.8,72,0.00,,,0.00,WUHU216HW,2013-01-16 14:09:00,
2013-01-16 06:14:00,23.8,16.0,30.51,ENE,68,1.3,4.0,72,0.00,,,0.00,WUHU216HW,2013-01-16 14:14:00,
2013-01-16 06:19:00,23.8,16.0,30.51,NE,45,2.5,4.0,72,0.00,,,0.00,WUHU216HW,2013-01-16 14:19:00,
2013-01-16 06:24:00,23.8,16.0,30.52,NNE,23,2.9,3.1,72,0.00,,,0.00,WUHU216HW,2013-01-16 14:24:00,
2013-01-16 06:29:00,23.8,16.0,30.51,North,0,2.2,5.6,72,0.00,,,0.00,WUHU216HW,2013-01-16 14:29:00,
2013-01-16 06:34:00,23.9,15.9,30.51,NNE,23,1.8,5.6,71,0.00,,,0.00,WUHU216HW,2013-01-16 14:34:00,
2013-01-16 06:39:00,23.9,15.9,30.52,NE,45,1.3,2.9,71,0.00,,,0.00,WUHU216HW,2013-01-16 14:39:00,
2013-01-16 06:44:00,23.8,15.8,30.51,ENE,68,1.1,3.1,71,0.00,,,0.00,WUHU216HW,2013-01-16 14:44:00,
2013-01-16 06:49:00,23.6,15.6,30.51,NNE,23,2.5,4.9,71,0.00,,,0.00,WUHU216HW,2013-01-16 14:49:00,
2013-01-16 06:54:00,23.6,15.8,30.52,NNE,23,2.2,4.9,72,0.00,,,0.00,WUHU216HW,2013-01-16 14:54:00,
2013-01-16 06:59:00,23.6,15.8,30.52,NNE,23,2.2,3.6,72,0.00,,,0.00,WUHU216HW,2013-01-16 14:59:00,
2013-01-16 07:04:00,23.4,15.7,30.52,North,0,2.2,3.4,72,0.00,,,0.00,WUHU216HW,2013-01-16 15:04:00,
2013-01-16 07:09:00,23.2,15.6,30.52,North,0,0.4,3.4,72,0.00,,,0.00,WUHU216HW,2013-01-16 15:09:00,
2013-01-16 07:14:00,23.0,15.4,30.52,NNE,23,1.1,2.2,72,0.00,,,0.00,WUHU216HW,2013-01-16 15:14:00,
2013-01-16 07:19:00,22.7,15.0,30.52,NNE,23,0.0,1.8,72,0.00,,,0.00,WUHU216HW,2013-01-16 15:19:00,
2013-01-16 07:24:00,22.5,15.1,30.53,NNE,23,0.0,1.1,73,0.00,,,0.00,WUHU216HW,2013-01-16 15:24:00,
2013-01-16 07:29:00,22.3,14.9,30.52,NNE,23,0.4,1.8,73,0.00,,,0.00,WUHU216HW,2013-01-16 15:29:00,
2013-01-16 07:34:00,22.0,14.6,30.52,NNE,23,1.3,1.8,73,0.00,,,0.00,WUHU216HW,2013-01-16 15:34:00,
2013-01-16 07:39:00,22.0,15.0,30.52,NNE,23,0.4,2.0,74,0.00,,,0.00,WUHU216HW,2013-01-16 15:39:00,
2013-01-16 07:44:00,21.8,14.8,30.53,NNE,23,0.9,2.0,74,0.00,,,0.00,WUHU216HW,2013-01-16 15:44:00,
2013-01-16 07:49:00,22.0,15.2,30.53,NE,45,1.8,2.2,75,0.00,,,0.00,WUHU216HW,2013-01-16 15:49:00,
2013-01-16 07:54:00,22.0,15.2,30.53,ENE,68,0.7,2.7,75,0.00,,,0.00,WUHU216HW,2013-01-16 15:54:00,
2013-01-16 07:59:00,22.3,15.6,30.53,NE,45,1.3,2.7,75,0.00,,,0.00,WUHU216HW,2013-01-16 15:59:00,
2013-01-16 08:04:00,22.3,15.3,30.52,NE,45,1.8,3.1,74,0.00,,,0.00,WUHU216HW,2013-01-16 16:04:00,
2013-01-16 08:09:00,22.7,15.7,30.53,NNE,23,1.1,3.1,74,0.00,,,0.00,WUHU216HW,2013-01-16 16:09:00,
2013-01-16 08:14:00,22.7,15.7,30.53,NE,45,2.0,3.4,74,0.00,,,0.00,WUHU216HW,2013-01-16 16:14:00,
2013-01-16 08:19:00,23.0,15.7,30.53,ENE,68,4.7,4.7,73,0.00,,,0.00,WUHU216HW,2013-01-16 16:19:00,
2013-01-16 08:24:00,24.1,16.4,30.53,NE,45,3.4,5.1,72,0.00,,,0.00,WUHU216HW,2013-01-16 16:24:00,
2013-01-16 08:29:00,25.4,17.3,30.53,NNE,23,4.0,5.1,71,0.00,,,0.00,WUHU216HW,2013-01-16 16:29:00,
2013-01-16 08:34:00,25.9,17.1,30.53,North,0,2.5,4.9,69,0.00,,,0.00,WUHU216HW,2013-01-16 16:34:00,
2013-01-16 08:39:00,25.6,16.4,30.52,NNE,23,1.6,4.0,68,0.00,,,0.00,WUHU216HW,2013-01-16 16:39:00,
2013-01-16 08:44:00,25.6,16.7,30.52,NNE,23,1.1,2.5,69,0.00,,,0.00,WUHU216HW,2013-01-16 16:44:00,
2013-01-16 08:49:00,25.6,16.7,30.52,North,0,1.1,1.8,69,0.00,,,0.00,WUHU216HW,2013-01-16 16:49:00,
2013-01-16 08:54:00,25.6,16.7,30.53,North,0,1.6,1.8,69,0.00,,,0.00,WUHU216HW,2013-01-16 16:54:00,
2013-01-16 08:59:00,25.6,16.7,30.54,North,0,2.0,2.0,69,0.00,,,0.00,WUHU216HW,2013-01-16 16:59:00,
2013-01-16 09:04:00,25.9,17.1,30.54,NE,45,2.2,2.2,69,0.00,,,0.00,WUHU216HW,2013-01-16 17:04:00,
2013-01-16 09:09:00,26.3,17.1,30.55,NNE,23,1.6,4.7,68,0.00,,,0.00,WUHU216HW,2013-01-16 17:09:00,
2013-01-16 09:14:00,26.6,17.1,30.55,NNE,23,3.1,4.7,67,0.00,,,0.00,WUHU216HW,2013-01-16 17:14:00,
2013-01-16 09:19:00,27.4,17.5,30.55,NNE,23,5.8,5.8,66,0.00,,,0.00,WUHU216HW,2013-01-16 17:19:00,
2013-01-16 09:24:00,27.9,17.6,30.55,NNE,23,1.6,5.8,65,0.00,,,0.00,WUHU216HW,2013-01-16 17:24:00,
2013-01-16 09:29:00,28.3,18.0,30.55,ENE,68,3.1,5.8,65,0.00,,,0.00,WUHU216HW,2013-01-16 17:29:00,
2013-01-16 09:34:00,28.8,18.2,30.55,NNE,23,3.1,3.8,64,0.00,,,0.00,WUHU216HW,2013-01-16 17:34:00,
2013-01-16 09:39:00,29.2,18.1,30.55,North,0,3.4,5.1,63,0.00,,,0.00,WUHU216HW,2013-01-16 17:39:00,
2013-01-16 09:44:00,29.9,18.7,30.55,NNE,23,2.7,5.1,63,0.00,,,0.00,WUHU216HW,2013-01-16 17:44:00,
2013-01-16 09:49:00,30.1,19.3,30.55,ENE,68,3.4,3.8,64,0.00,,,0.00,WUHU216HW,2013-01-16 17:49:00,
2013-01-16 09:54:00,31.3,19.8,30.55,NNE,23,2.5,4.3,62,0.00,,,0.00,WUHU216HW,2013-01-16 17:54:00,
2013-01-16 09:59:00,32.0,19.4,30.55,ENE,68,1.6,4.7,59,0.00,,,0.00,WUHU216HW,2013-01-16 17:59:00,
2013-01-16 10:04:00,32.8,19.6,30.55,NE,45,6.3,6.3,58,0.00,,,0.00,WUHU216HW,2013-01-16 18:04:00,
2013-01-16 10:09:00,33.5,19.4,30.54,NNE,23,2.0,6.3,56,0.00,,,0.00,WUHU216HW,2013-01-16 18:09:00,
2013-01-16 10:14:00,34.0,19.9,30.54,NNE,23,2.9,6.5,56,0.00,,,0.00,WUHU216HW,2013-01-16 18:14:00,
2013-01-16 10:19:00,34.6,20.0,30.54,NNE,23,2.5,6.5,55,0.00,,,0.00,WUHU216HW,2013-01-16 18:19:00,
2013-01-16 10:24:00,34.9,20.3,30.54,NNE,23,4.0,5.4,55,0.00,,,0.00,WUHU216HW,2013-01-16 18:24:00,
2013-01-16 10:29:00,35.5,20.4,30.55,NNE,23,4.9,4.9,54,0.00,,,0.00,WUHU216HW,2013-01-16 18:29:00,
2013-01-16 10:34:00,35.8,20.3,30.55,NE,45,7.6,7.6,53,0.00,,,0.00,WUHU216HW,2013-01-16 18:34:00,
2013-01-16 10:39:00,36.2,21.2,30.56,ENE,68,2.5,7.6,54,0.00,,,0.00,WUHU216HW,2013-01-16 18:39:00,
2013-01-16 10:44:00,36.9,21.8,30.55,North,0,2.5,7.6,54,0.00,,,0.00,WUHU216HW,2013-01-16 18:44:00,
2013-01-16 10:49:00,37.3,21.7,30.54,NNE,23,4.0,4.0,53,0.00,,,0.00,WUHU216HW,2013-01-16 18:49:00,
2013-01-16 10:54:00,37.6,21.5,30.54,NE,45,3.1,4.0,52,0.00,,,0.00,WUHU216HW,2013-01-16 18:54:00,
2013-01-16 10:59:00,38.3,21.8,30.53,NNE,23,4.7,4.7,51,0.00,,,0.00,WUHU216HW,2013-01-16 18:59:00,
2013-01-16 11:04:00,38.7,21.7,30.52,NNE,23,1.6,4.7,50,0.00,,,0.00,WUHU216HW,2013-01-16 19:04:00,
2013-01-16 11:09:00,39.4,20.7,30.52,NNE,23,6.5,6.5,47,0.00,,,0.00,WUHU216HW,2013-01-16 19:09:00,
2013-01-16 11:14:00,40.0,21.8,30.52,NNE,23,4.9,6.5,48,0.00,,,0.00,WUHU216HW,2013-01-16 19:14:00,
2013-01-16 11:19:00,40.3,21.5,30.52,NE,45,5.6,7.6,47,0.00,,,0.00,WUHU216HW,2013-01-16 19:19:00,
2013-01-16 11:24:00,40.7,21.3,30.51,North,0,4.3,7.8,46,0.00,,,0.00,WUHU216HW,2013-01-16 19:24:00,
2013-01-16 11:29:00,41.0,21.7,30.51,NE,45,4.0,7.8,46,0.00,,,0.00,WUHU216HW,2013-01-16 19:29:00,
2013-01-16 11:34:00,41.4,21.5,30.51,ENE,68,4.7,4.7,45,0.00,,,0.00,WUHU216HW,2013-01-16 19:34:00,
2013-01-16 11:39:00,41.9,22.5,30.51,NE,45,1.1,4.7,46,0.00,,,0.00,WUHU216HW,2013-01-16 19:39:00,
2013-01-16 11:44:00,42.5,22.5,30.51,ENE,68,4.7,4.7,45,0.00,,,0.00,WUHU216HW,2013-01-16 19:44:00,
2013-01-16 11:49:00,43.0,23.1,30.50,NNE,23,3.1,4.7,45,0.00,,,0.00,WUHU216HW,2013-01-16 19:49:00,
2013-01-16 11:54:00,43.6,23.5,30.50,NNE,23,2.9,4.7,45,0.00,,,0.00,WUHU216HW,2013-01-16 19:54:00,
2013-01-16 11:59:00,44.1,23.0,30.50,ENE,68,2.0,4.9,43,0.00,,,0.00,WUHU216HW,2013-01-16 19:59:00,
2013-01-16 12:04:00,44.3,21.4,30.49,NNE,23,5.4,6.3,40,0.00,,,0.00,WUHU216HW,2013-01-16 20:04:00,
2013-01-16 12:09:00,44.3,22.5,30.49,ENE,68,2.7,7.6,42,0.00,,,0.00,WUHU216HW,2013-01-16 20:09:00,
2013-01-16 12:14:00,45.0,23.2,30.49,ENE,68,1.8,7.6,42,0.00,,,0.00,WUHU216HW,2013-01-16 20:14:00,
2013-01-16 12:19:00,45.5,23.1,30.49,NNE,23,3.4,6.0,41,0.00,,,0.00,WUHU216HW,2013-01-16 20:19:00,
2013-01-16 12:24:00,45.9,23.5,30.49,NE,45,5.1,6.0,41,0.00,,,0.00,WUHU216HW,2013-01-16 20:24:00,
2013-01-16 12:29:00,46.3,23.2,30.48,East,90,5.4,6.5,40,0.00,,,0.00,WUHU216HW,2013-01-16 20:29:00,
2013-01-16 12:34:00,46.1,23.6,30.48,East,90,4.3,6.9,41,0.00,,,0.00,WUHU216HW,2013-01-16 20:34:00,
2013-01-16 12:39:00,46.8,23.8,30.48,East,90,5.4,6.9,40,0.00,,,0.00,WUHU216HW,2013-01-16 20:39:00,
2013-01-16 12:44:00,47.2,23.4,30.47,NE,45,4.7,6.7,39,0.00,,,0.00,WUHU216HW,2013-01-16 20:44:00,
2013-01-16 12:49:00,47.7,23.2,30.47,East,90,4.7,5.6,38,0.00,,,0.00,WUHU216HW,2013-01-16 20:49:00,
2013-01-16 12:54:00,47.7,23.2,30.47,ENE,68,6.0,6.3,38,0.00,,,0.00,WUHU216HW,2013-01-16 20:54:00,
2013-01-16 12:59:00,48.1,23.5,30.47,North,0,7.4,7.4,38,0.00,,,0.00,WUHU216HW,2013-01-16 20:59:00,
2013-01-16 13:04:00,48.6,23.3,30.47,North,0,6.3,7.4,37,0.00,,,0.00,WUHU216HW,2013-01-16 21:04:00,
2013-01-16 13:09:00,49.0,23.7,30.47,North,0,3.1,7.4,37,0.00,,,0.00,WUHU216HW,2013-01-16 21:09:00,
2013-01-16 13:14:00,49.9,24.4,30.47,NNE,23,2.5,6.3,37,0.00,,,0.00,WUHU216HW,2013-01-16 21:14:00,
2013-01-16 13:19:00,50.6,25.1,30.47,NNE,23,1.8,3.1,37,0.00,,,0.00,WUHU216HW,2013-01-16 21:19:00,
2013-01-16 13:24:00,51.1,24.8,30.46,ENE,68,0.9,2.5,36,0.00,,,0.00,WUHU216HW,2013-01-16 21:24:00,
2013-01-16 13:28:00,51.1,23.5,30.46,NNE,23,4.0,4.0,34,0.00,,,0.00,WUHU216HW,2013-01-16 21:28:00,
2013-01-16 13:33:00,51.3,23.7,30.46,NNW,338,2.5,4.0,34,0.00,,,0.00,WUHU216HW,2013-01-16 21:33:00,
2013-01-16 13:38:00,51.3,23.7,30.46,NNE,23,1.8,4.0,34,0.00,,,0.00,WUHU216HW,2013-01-16 21:38:00,
2013-01-16 13:44:00,52.2,24.5,30.46,NNE,23,4.7,4.7,34,0.00,,,0.00,WUHU216HW,2013-01-16 21:44:00,
2013-01-16 13:49:00,52.4,23.9,30.46,North,0,3.6,4.7,33,0.00,,,0.00,WUHU216HW,2013-01-16 21:49:00,
2013-01-16 13:54:00,52.6,24.1,30.46,NNE,23,0.9,4.7,33,0.00,,,0.00,WUHU216HW,2013-01-16 21:54:00,
2013-01-16 13:59:00,52.7,23.6,30.46,NNE,23,1.8,7.2,32,0.00,,,0.00,WUHU216HW,2013-01-16 21:59:00,
2013-01-16 14:04:00,52.9,23.8,30.45,North,0,4.7,7.2,32,0.00,,,0.00,WUHU216HW,2013-01-16 22:04:00,
2013-01-16 14:09:00,53.3,24.1,30.45,North,0,4.9,4.9,32,0.00,,,0.00,WUHU216HW,2013-01-16 22:09:00,
2013-01-16 14:14:00,53.3,24.1,30.45,ENE,68,1.3,4.9,32,0.00,,,0.00,WUHU216HW,2013-01-16 22:14:00,
2013-01-16 14:18:00,53.8,23.9,30.45,NNE,23,1.1,4.9,31,0.00,,,0.00,WUHU216HW,2013-01-16 22:18:00,
2013-01-16 14:23:00,54.0,22.4,30.45,ENE,68,3.6,4.7,29,0.00,,,0.00,WUHU216HW,2013-01-16 22:23:00,
2013-01-16 14:28:00,54.2,24.1,30.45,NE,45,1.8,4.3,31,0.00,,,0.00,WUHU216HW,2013-01-16 22:28:00,
2013-01-16 14:33:00,54.4,23.6,30.45,ENE,68,5.4,5.4,30,0.00,,,0.00,WUHU216HW,2013-01-16 22:33:00,
2013-01-16 14:38:00,54.5,22.9,30.45,NNE,23,2.9,5.4,29,0.00,,,0.00,WUHU216HW,2013-01-16 22:38:00,
2013-01-16 14:43:00,54.7,23.0,30.45,East,90,2.5,5.4,29,0.00,,,0.00,WUHU216HW,2013-01-16 22:43:00,
2013-01-16 14:48:00,55.3,23.4,30.45,NNE,23,2.0,2.9,29,0.00,,,0.00,WUHU216HW,2013-01-16 22:48:00,
2013-01-16 14:53:00,55.8,23.0,30.45,ENE,68,2.5,2.5,28,0.00,,,0.00,WUHU216HW,2013-01-16 22:53:00,
2013-01-16 14:58:00,56.3,24.3,30.45,NNE,23,2.7,2.7,29,0.00,,,0.00,WUHU216HW,2013-01-16 22:58:00,
2013-01-16 15:03:00,56.5,23.6,30.45,NE,45,2.9,3.6,28,0.00,,,0.00,WUHU216HW,2013-01-16 23:03:00,
2013-01-16 15:08:00,58.0,22.0,30.45,North,0,4.3,4.3,25,0.00,,,0.00,WUHU216HW,2013-01-16 23:08:00,
2013-01-16 15:13:00,58.3,24.2,30.45,NNE,23,3.1,4.3,27,0.00,,,0.00,WUHU216HW,2013-01-16 23:13:00,
2013-01-16 15:18:00,58.7,24.5,30.45,NE,45,1.8,4.3,27,0.00,,,0.00,WUHU216HW,2013-01-16 23:18:00,
2013-01-16 15:23:00,59.8,23.5,30.45,NE,45,3.4,4.5,25,0.00,,,0.00,WUHU216HW,2013-01-16 23:23:00,
2013-01-16 15:28:00,59.6,23.3,30.45,NE,45,2.0,4.5,25,0.00,,,0.00,WUHU216HW,2013-01-16 23:28:00,
2013-01-16 15:33:00,59.4,23.1,30.45,ENE,68,2.9,3.4,25,0.00,,,0.00,WUHU216HW,2013-01-16 23:33:00,
2013-01-16 15:38:00,58.1,24.0,30.45,NNE,23,1.8,2.9,27,0.00,,,0.00,WUHU216HW,2013-01-16 23:38:00,
2013-01-16 15:43:00,57.2,23.2,30.45,NE,45,1.1,2.9,27,0.00,,,0.00,WUHU216HW,2013-01-16 23:43:00,
2013-01-16 15:48:00,55.8,23.0,30.45,NNW,338,1.1,1.8,28,0.00,,,0.00,WUHU216HW,2013-01-16 23:48:00,
2013-01-16 15:53:00,55.4,23.6,30.45,North,0,1.8,2.9,29,0.00,,,0.00,WUHU216HW,2013-01-16 23:53:00,
2013-01-16 15:58:00,54.7,24.0,30.45,North,0,0.4,2.9,30,0.00,,,0.00,WUHU216HW,2013-01-16 23:58:00,
2013-01-16 16:03:00,54.5,23.8,30.45,North,0,1.6,2.5,30,0.00,,,0.00,WUHU216HW,2013-01-17 00:03:00,
2013-01-16 16:08:00,54.2,24.1,30.45,North,0,0.4,1.6,31,0.00,,,0.00,WUHU216HW,2013-01-17 00:08:00,
2013-01-16 16:13:00,54.0,24.0,30.45,North,0,0.2,2.5,31,0.00,,,0.00,WUHU216HW,2013-01-17 00:13:00,
2013-01-16 16:18:00,53.6,23.8,30.45,North,0,0.9,2.5,31,0.00,,,0.00,WUHU216HW,2013-01-17 00:18:00,
2013-01-16 16:23:00,53.3,23.4,30.45,North,0,1.1,1.1,31,0.00,,,0.00,WUHU216HW,2013-01-17 00:23:00,
2013-01-16 16:28:00,53.1,23.2,30.45,North,0,1.3,1.3,31,0.00,,,0.00,WUHU216HW,2013-01-17 00:28:00,
2013-01-16 16:33:00,52.7,23.6,30.45,North,0,0.7,1.3,32,0.00,,,0.00,WUHU216HW,2013-01-17 00:33:00,
2013-01-16 16:38:00,51.5,23.1,30.45,North,0,1.1,1.3,33,0.00,,,0.00,WUHU216HW,2013-01-17 00:38:00,
2013-01-16 16:43:00,50.4,22.1,30.45,North,0,0.7,1.1,33,0.00,,,0.00,WUHU216HW,2013-01-17 00:43:00,
2013-01-16 16:48:00,49.3,23.3,30.45,North,0,0.7,1.1,36,0.00,,,0.00,WUHU216HW,2013-01-17 00:48:00,
2013-01-16 16:53:00,48.6,23.3,30.44,North,0,0.7,0.9,37,0.00,,,0.00,WUHU216HW,2013-01-17 00:53:00,
2013-01-16 16:58:00,47.7,23.2,30.44,North,0,1.1,1.1,38,0.00,,,0.00,WUHU216HW,2013-01-17 00:58:00,
2013-01-16 17:03:00,47.3,22.9,30.45,North,0,0.4,1.1,38,0.00,,,0.00,WUHU216HW,2013-01-17 01:03:00,
2013-01-16 17:08:00,46.1,24.1,30.44,North,0,0.0,1.1,42,0.00,,,0.00,WUHU216HW,2013-01-17 01:08:00,
2013-01-16 17:13:00,45.2,23.9,30.44,North,0,1.1,1.1,43,0.00,,,0.00,WUHU216HW,2013-01-17 01:13:00,
2013-01-16 17:18:00,44.5,23.2,30.44,North,0,0.9,1.1,43,0.00,,,0.00,WUHU216HW,2013-01-17 01:18:00,
2013-01-16 17:23:00,44.6,23.4,30.44,North,0,0.9,1.1,43,0.00,,,0.00,WUHU216HW,2013-01-17 01:23:00,
2013-01-16 17:28:00,44.5,23.8,30.44,North,0,1.1,1.1,44,0.00,,,0.00,WUHU216HW,2013-01-17 01:28:00,
2013-01-16 17:33:00,44.3,23.6,30.44,North,0,0.7,1.1,44,0.00,,,0.00,WUHU216HW,2013-01-17 01:33:00,
2013-01-16 17:38:00,44.3,23.6,30.45,North,0,0.4,1.1,44,0.00,,,0.00,WUHU216HW,2013-01-17 01:38:00,
2013-01-16 17:43:00,43.6,24.0,30.45,North,0,0.4,0.9,46,0.00,,,0.00,WUHU216HW,2013-01-17 01:43:00,
2013-01-16 17:48:00,42.5,24.7,30.45,North,0,0.7,0.7,49,0.00,,,0.00,WUHU216HW,2013-01-17 01:48:00,
2013-01-16 17:53:00,41.9,24.7,30.45,North,0,1.1,1.1,50,0.00,,,0.00,WUHU216HW,2013-01-17 01:53:00,
2013-01-16 17:58:00,41.4,23.6,30.45,North,0,0.4,1.1,49,0.00,,,0.00,WUHU216HW,2013-01-17 01:58:00,
2013-01-16 18:03:00,41.4,23.6,30.45,North,0,0.4,1.1,49,0.00,,,0.00,WUHU216HW,2013-01-17 02:03:00,
2013-01-16 18:08:00,41.0,23.2,30.45,North,0,0.0,0.7,49,0.00,,,0.00,WUHU216HW,2013-01-17 02:08:00,
2013-01-16 18:13:00,40.7,23.0,30.45,North,0,0.0,0.4,49,0.00,,,0.00,WUHU216HW,2013-01-17 02:13:00,
2013-01-16 18:18:00,40.3,22.6,30.45,North,0,0.0,0.0,49,0.00,,,0.00,WUHU216HW,2013-01-17 02:18:00,
2013-01-16 18:23:00,40.0,23.2,30.45,North,0,0.4,0.7,51,0.00,,,0.00,WUHU216HW,2013-01-17 02:23:00,
2013-01-16 18:28:00,39.6,23.3,30.45,North,0,1.1,1.1,52,0.00,,,0.00,WUHU216HW,2013-01-17 02:28:00,
2013-01-16 18:33:00,39.2,23.4,30.45,North,0,0.0,1.1,53,0.00,,,0.00,WUHU216HW,2013-01-17 02:33:00,
2013-01-16 18:38:00,39.2,23.4,30.45,North,0,0.0,1.1,53,0.00,,,0.00,WUHU216HW,2013-01-17 02:38:00,
2013-01-16 19:05:00,37.8,21.7,30.45,North,0,0.4,0.4,52,0.00,,,0.00,WUHU216HW,2013-01-17 03:05:00,
2013-01-16 19:10:00,37.6,22.0,30.45,NNE,23,0.7,0.9,53,0.00,,,0.00,WUHU216HW,2013-01-17 03:10:00,
2013-01-16 19:15:00,37.4,21.8,30.45,NNE,23,1.3,1.3,53,0.00,,,0.00,WUHU216HW,2013-01-17 03:15:00,
2013-01-16 19:20:00,37.1,22.0,30.45,ENE,68,1.8,2.7,54,0.00,,,0.00,WUHU216HW,2013-01-17 03:20:00,
2013-01-16 19:25:00,37.1,21.5,30.45,NE,45,1.1,2.7,53,0.00,,,0.00,WUHU216HW,2013-01-17 03:25:00,
2013-01-16 19:30:00,37.1,22.0,30.45,NE,45,1.8,3.1,54,0.00,,,0.00,WUHU216HW,2013-01-17 03:30:00,
2013-01-16 19:35:00,37.1,22.0,30.45,ENE,68,1.8,3.4,54,0.00,,,0.00,WUHU216HW,2013-01-17 03:35:00,
2013-01-16 19:40:00,37.3,22.1,30.45,NE,45,2.7,3.4,54,0.00,,,0.00,WUHU216HW,2013-01-17 03:40:00,
2013-01-16 19:45:00,37.3,22.1,30.45,NE,45,1.8,4.0,54,0.00,,,0.00,WUHU216HW,2013-01-17 03:45:00,
2013-01-16 19:50:00,37.1,22.0,30.45,NE,45,2.5,4.0,54,0.00,,,0.00,WUHU216HW,2013-01-17 03:50:00,
2013-01-16 19:55:00,36.5,21.4,30.45,NE,45,2.0,2.7,54,0.00,,,0.00,WUHU216HW,2013-01-17 03:55:00,
2013-01-16 20:00:00,36.4,21.7,30.45,NE,45,1.8,2.5,55,0.00,,,0.00,WUHU216HW,2013-01-17 04:00:00,
2013-01-16 20:05:00,36.2,21.5,30.45,ENE,68,1.3,2.2,55,0.00,,,0.00,WUHU216HW,2013-01-17 04:05:00,
2013-01-16 20:10:00,36.0,21.8,30.45,NE,45,1.1,2.5,56,0.00,,,0.00,WUHU216HW,2013-01-17 04:10:00,
2013-01-16 20:15:00,35.6,21.5,30.45,NE,45,0.2,2.5,56,0.00,,,0.00,WUHU216HW,2013-01-17 04:15:00,
2013-01-16 20:20:00,35.3,21.2,30.45,NE,45,0.9,1.1,56,0.00,,,0.00,WUHU216HW,2013-01-17 04:20:00,
2013-01-16 20:25:00,34.9,20.8,30.45,NE,45,1.8,1.8,56,0.00,,,0.00,WUHU216HW,2013-01-17 04:25:00,
2013-01-16 20:30:00,34.6,21.2,30.45,ENE,68,2.2,2.5,58,0.00,,,0.00,WUHU216HW,2013-01-17 04:30:00,
2013-01-16 20:35:00,34.4,21.5,30.45,NE,45,3.1,3.1,59,0.00,,,0.00,WUHU216HW,2013-01-17 04:35:00,
2013-01-16 20:40:00,34.2,21.8,30.45,ENE,68,2.5,4.9,60,0.00,,,0.00,WUHU216HW,2013-01-17 04:40:00,
2013-01-16 20:45:00,34.2,22.5,30.45,NE,45,3.1,4.9,62,0.00,,,0.00,WUHU216HW,2013-01-17 04:45:00,
2013-01-16 20:50:00,34.2,22.1,30.45,NE,45,1.8,4.5,61,0.00,,,0.00,WUHU216HW,2013-01-17 04:50:00,
2013-01-16 20:55:00,34.0,22.0,30.45,NE,45,3.1,3.1,61,0.00,,,0.00,WUHU216HW,2013-01-17 04:55:00,
2013-01-16 21:01:00,33.8,21.8,30.45,ENE,68,2.5,3.1,61,0.00,,,0.00,WUHU216HW,2013-01-17 05:01:00,
2013-01-16 21:06:00,33.7,22.0,30.45,NE,45,2.9,3.4,62,0.00,,,0.00,WUHU216HW,2013-01-17 05:06:00,
2013-01-16 21:11:00,33.5,21.8,30.45,ENE,68,3.4,4.3,62,0.00,,,0.00,WUHU216HW,2013-01-17 05:11:00,
2013-01-16 21:16:00,33.5,21.8,30.45,ENE,68,3.1,4.3,62,0.00,,,0.00,WUHU216HW,2013-01-17 05:16:00,
2013-01-16 21:21:00,33.5,21.8,30.45,ENE,68,2.7,4.0,62,0.00,,,0.00,WUHU216HW,2013-01-17 05:21:00,
2013-01-16 21:26:00,33.3,21.7,30.45,NE,45,1.8,3.4,62,0.00,,,0.00,WUHU216HW,2013-01-17 05:26:00,
2013-01-16 21:31:00,33.1,21.9,30.45,NE,45,2.0,3.1,63,0.00,,,0.00,WUHU216HW,2013-01-17 05:31:00,
2013-01-16 21:36:00,33.1,21.9,30.45,NE,45,2.7,3.1,63,0.00,,,0.00,WUHU216HW,2013-01-17 05:36:00,
2013-01-16 21:41:00,32.8,21.9,30.45,NE,45,2.5,2.7,64,0.00,,,0.00,WUHU216HW,2013-01-17 05:41:00,
2013-01-16 21:46:00,32.9,22.1,30.45,NE,45,1.6,2.7,64,0.00,,,0.00,WUHU216HW,2013-01-17 05:46:00,
2013-01-16 21:51:00,32.9,22.1,30.45,ENE,68,2.2,3.6,64,0.00,,,0.00,WUHU216HW,2013-01-17 05:51:00,
2013-01-16 21:55:00,32.9,21.7,30.45,ENE,68,3.8,3.8,63,0.00,,,0.00,WUHU216HW,2013-01-17 05:55:00,
2013-01-16 22:00:00,32.8,21.5,30.45,ENE,68,2.5,4.5,63,0.00,,,0.00,WUHU216HW,2013-01-17 06:00:00,
2013-01-16 22:05:00,32.8,21.5,30.45,NE,45,2.0,4.5,63,0.00,,,0.00,WUHU216HW,2013-01-17 06:05:00,
2013-01-16 22:10:00,32.8,21.5,30.45,NE,45,1.1,3.4,63,0.00,,,0.00,WUHU216HW,2013-01-17 06:10:00,
2013-01-16 22:15:00,32.4,21.3,30.45,NE,45,2.2,2.7,63,0.00,,,0.00,WUHU216HW,2013-01-17 06:15:00,
2013-01-16 22:20:00,32.4,21.3,30.45,NE,45,1.1,2.5,63,0.00,,,0.00,WUHU216HW,2013-01-17 06:20:00,
2013-01-16 22:25:00,32.0,20.9,30.45,NE,45,1.1,2.2,63,0.00,,,0.00,WUHU216HW,2013-01-17 06:25:00,
2013-01-16 22:30:00,31.9,20.7,30.45,NNE,23,0.4,1.8,63,0.00,,,0.00,WUHU216HW,2013-01-17 06:30:00,
2013-01-16 22:35:00,31.5,20.7,30.45,NE,45,0.4,2.0,64,0.00,,,0.00,WUHU216HW,2013-01-17 06:35:00,
2013-01-16 22:40:00,31.3,20.9,30.45,NNE,23,1.3,2.5,65,0.00,,,0.00,WUHU216HW,2013-01-17 06:40:00,
2013-01-16 22:45:00,31.3,20.9,30.45,NNE,23,0.4,2.5,65,0.00,,,0.00,WUHU216HW,2013-01-17 06:45:00,
2013-01-16 22:50:00,31.1,20.7,30.45,NNE,23,0.0,2.2,65,0.00,,,0.00,WUHU216HW,2013-01-17 06:50:00,
2013-01-16 22:55:00,31.0,20.9,30.45,NNE,23,0.0,0.7,66,0.00,,,0.00,WUHU216HW,2013-01-17 06:55:00,
2013-01-16 23:01:00,30.8,20.7,30.45,NNE,23,0.0,0.4,66,0.00,,,0.00,WUHU216HW,2013-01-17 07:01:00,
2013-01-16 23:06:00,30.6,20.5,30.45,NNE,23,0.0,0.4,66,0.00,,,0.00,WUHU216HW,2013-01-17 07:06:00,
2013-01-16 23:11:00,30.4,20.7,30.45,NNE,23,0.4,1.3,67,0.00,,,0.00,WUHU216HW,2013-01-17 07:11:00,
2013-01-16 23:15:00,30.4,21.1,30.45,NNE,23,0.0,1.3,68,0.00,,,0.00,WUHU216HW,2013-01-17 07:15:00,
2013-01-16 23:20:00,30.2,20.5,30.45,NNE,23,0.4,1.1,67,0.00,,,0.00,WUHU216HW,2013-01-17 07:20:00,
2013-01-16 23:25:00,30.2,20.5,30.45,NNE,23,1.8,1.8,67,0.00,,,0.00,WUHU216HW,2013-01-17 07:25:00,
2013-01-16 23:30:00,30.1,20.3,30.45,NNE,23,1.1,1.8,67,0.00,,,0.00,WUHU216HW,2013-01-17 07:30:00,
2013-01-16 23:35:00,29.9,20.2,30.45,NNE,23,0.2,1.8,67,0.00,,,0.00,WUHU216HW,2013-01-17 07:35:00,
2013-01-16 23:40:00,29.9,20.2,30.46,NNE,23,0.2,1.1,67,0.00,,,0.00,WUHU216HW,2013-01-17 07:40:00,
2013-01-16 23:45:00,29.9,20.5,30.46,NNE,23,0.0,0.4,68,0.00,,,0.00,WUHU216HW,2013-01-17 07:45:00,
2013-01-16 23:50:00,29.9,20.9,30.46,NNE,23,0.2,0.7,69,0.00,,,0.00,WUHU216HW,2013-01-17 07:50:00,
2013-01-16 23:55:00,29.7,21.2,30.46,NNE,23,0.4,1.1,70,0.00,,,0.00,WUHU216HW,2013-01-17 07:55:00,